Search METAR Data

METAR Data for ENVA:

ENVA 220350Z 12007KT CAVOK 11/07 Q1020 RMK WIND 670FT 14005KT